Alpena, South Dakota
Current Conditions -  °F | °C
As of 12:55 AM on Thursday 23 Oct 2014 (Local Time) from KHON Reporting Station
Clear Clear  
Wind Chill: 43°   Ceiling: Unl
Heat Index: 46°   Visibility: 10mi
Dew Point: 44°   Wind: 6mph
Humidity: 93%   Direction: 200°SSW
Pressure: 29.98"   Gusts: NA
Location:  44.18°N, 98.37°W
Report Text: KHON 230555Z AUTO 20005KT 10SM CLR 08/07 A2998 RMK AO2 SLP153 T00780067 10133 20078 401940078 58001
Loading
Personal Weather Stations






























Interactive Weather Map
Tropical Storm Tracking
New forecast layout! Learn more

10-Day Weather Forecast

Advertisements
Track Severe Weather on mobile